ESOK 151650Z 07009KT 3000 DZ OVC003 07/07 Q1010